sensor_id;sensor_type;location;lat;lon;timestamp;temperature;humidity
19972;DHT22;10147;16.402;102.848;2023-03-01T00:02:14;20.50;99.90
19972;DHT22;10147;16.402;102.848;2023-03-01T00:04:45;20.60;99.90
19972;DHT22;10147;16.402;102.848;2023-03-01T00:07:15;20.60;99.90
19972;DHT22;10147;16.402;102.848;2023-03-01T00:09:46;20.40;99.90
19972;DHT22;10147;16.402;102.848;2023-03-01T00:12:16;20.40;99.90
19972;DHT22;10147;16.402;102.848;2023-03-01T00:14:46;20.50;99.90
19972;DHT22;10147;16.402;102.848;2023-03-01T00:17:17;20.60;99.90
19972;DHT22;10147;16.402;102.848;2023-03-01T00:19:47;20.70;99.90
19972;DHT22;10147;16.402;102.848;2023-03-01T00:22:17;20.80;99.90
19972;DHT22;10147;16.402;102.848;2023-03-01T00:24:48;21.00;99.90
19972;DHT22;10147;16.402;102.848;2023-03-01T00:27:18;21.10;99.90
19972;DHT22;10147;16.402;102.848;2023-03-01T00:29:48;21.30;99.90
19972;DHT22;10147;16.402;102.848;2023-03-01T00:32:19;21.30;99.90
19972;DHT22;10147;16.402;102.848;2023-03-01T00:34:49;21.30;99.90
19972;DHT22;10147;16.402;102.848;2023-03-01T00:37:25;21.40;99.90
19972;DHT22;10147;16.402;102.848;2023-03-01T00:39:55;21.50;99.90
19972;DHT22;10147;16.402;102.848;2023-03-01T00:42:25;21.60;99.90
19972;DHT22;10147;16.402;102.848;2023-03-01T00:44:56;21.80;99.90
19972;DHT22;10147;16.402;102.848;2023-03-01T00:47:29;21.80;99.90
19972;DHT22;10147;16.402;102.848;2023-03-01T00:49:59;21.90;99.90
19972;DHT22;10147;16.402;102.848;2023-03-01T00:52:30;22.00;99.90
19972;DHT22;10147;16.402;102.848;2023-03-01T00:55:00;22.10;99.90
19972;DHT22;10147;16.402;102.848;2023-03-01T00:57:31;22.10;99.90
19972;DHT22;10147;16.402;102.848;2023-03-01T01:00:02;22.30;99.90
19972;DHT22;10147;16.402;102.848;2023-03-01T01:02:34;22.30;99.90
19972;DHT22;10147;16.402;102.848;2023-03-01T01:05:05;22.50;99.90
19972;DHT22;10147;16.402;102.848;2023-03-01T01:07:36;22.60;99.90
19972;DHT22;10147;16.402;102.848;2023-03-01T01:10:07;22.50;99.90
19972;DHT22;10147;16.402;102.848;2023-03-01T01:12:37;22.30;99.90
19972;DHT22;10147;16.402;102.848;2023-03-01T01:15:08;22.30;99.90
19972;DHT22;10147;16.402;102.848;2023-03-01T01:17:41;22.60;99.90
19972;DHT22;10147;16.402;102.848;2023-03-01T01:20:12;22.60;99.90
19972;DHT22;10147;16.402;102.848;2023-03-01T01:22:43;22.90;99.90
19972;DHT22;10147;16.402;102.848;2023-03-01T01:25:13;23.00;99.90
19972;DHT22;10147;16.402;102.848;2023-03-01T01:27:43;23.00;99.90
19972;DHT22;10147;16.402;102.848;2023-03-01T01:30:14;23.00;99.90
19972;DHT22;10147;16.402;102.848;2023-03-01T01:32:44;23.10;99.90
19972;DHT22;10147;16.402;102.848;2023-03-01T01:35:14;23.30;99.90
19972;DHT22;10147;16.402;102.848;2023-03-01T01:37:45;23.40;99.90
19972;DHT22;10147;16.402;102.848;2023-03-01T01:40:16;23.50;99.90
19972;DHT22;10147;16.402;102.848;2023-03-01T01:42:46;23.70;99.90
19972;DHT22;10147;16.402;102.848;2023-03-01T01:45:37;23.80;99.90
19972;DHT22;10147;16.402;102.848;2023-03-01T01:48:15;23.90;99.90
19972;DHT22;10147;16.402;102.848;2023-03-01T01:50:55;24.00;99.90
19972;DHT22;10147;16.402;102.848;2023-03-01T01:53:27;24.10;99.90
19972;DHT22;10147;16.402;102.848;2023-03-01T01:56:01;24.10;99.90
19972;DHT22;10147;16.402;102.848;2023-03-01T01:58:32;24.20;99.90
19972;DHT22;10147;16.402;102.848;2023-03-01T02:01:03;24.30;99.90
19972;DHT22;10147;16.402;102.848;2023-03-01T02:03:36;24.40;99.90
19972;DHT22;10147;16.402;102.848;2023-03-01T02:06:39;24.40;99.90
19972;DHT22;10147;16.402;102.848;2023-03-01T02:09:14;24.60;99.90
19972;DHT22;10147;16.402;102.848;2023-03-01T02:11:45;24.70;99.90
19972;DHT22;10147;16.402;102.848;2023-03-01T02:14:17;24.70;99.90
19972;DHT22;10147;16.402;102.848;2023-03-01T02:16:47;25.00;99.90
19972;DHT22;10147;16.402;102.848;2023-03-01T02:22:25;25.30;99.90
19972;DHT22;10147;16.402;102.848;2023-03-01T02:25:26;25.40;99.90
19972;DHT22;10147;16.402;102.848;2023-03-01T02:31:08;25.70;99.90
19972;DHT22;10147;16.402;102.848;2023-03-01T02:33:59;25.70;99.90
19972;DHT22;10147;16.402;102.848;2023-03-01T02:39:34;26.10;99.90
19972;DHT22;10147;16.402;102.848;2023-03-01T02:42:08;26.20;99.90
19972;DHT22;10147;16.402;102.848;2023-03-01T02:44:40;26.10;99.90
19972;DHT22;10147;16.402;102.848;2023-03-01T02:47:10;26.20;99.90
19972;DHT22;10147;16.402;102.848;2023-03-01T02:49:41;26.50;99.90
19972;DHT22;10147;16.402;102.848;2023-03-01T02:55:14;26.40;99.90
19972;DHT22;10147;16.402;102.848;2023-03-01T02:57:46;26.80;99.90
19972;DHT22;10147;16.402;102.848;2023-03-01T03:00:28;27.00;99.90
19972;DHT22;10147;16.402;102.848;2023-03-01T03:03:03;26.90;99.90
19972;DHT22;10147;16.402;102.848;2023-03-01T03:05:36;27.20;99.90
19972;DHT22;10147;16.402;102.848;2023-03-01T03:08:07;27.40;99.90
19972;DHT22;10147;16.402;102.848;2023-03-01T03:10:40;27.40;99.90
19972;DHT22;10147;16.402;102.848;2023-03-01T03:13:13;27.40;99.90
19972;DHT22;10147;16.402;102.848;2023-03-01T03:15:44;27.50;99.90
19972;DHT22;10147;16.402;102.848;2023-03-01T03:18:16;27.30;99.90
19972;DHT22;10147;16.402;102.848;2023-03-01T03:20:46;27.50;99.90
19972;DHT22;10147;16.402;102.848;2023-03-01T03:23:17;27.90;99.90
19972;DHT22;10147;16.402;102.848;2023-03-01T03:25:50;27.70;99.90
19972;DHT22;10147;16.402;102.848;2023-03-01T03:28:21;27.80;99.90
19972;DHT22;10147;16.402;102.848;2023-03-01T03:30:51;28.30;99.90
19972;DHT22;10147;16.402;102.848;2023-03-01T03:33:22;28.30;99.90
19972;DHT22;10147;16.402;102.848;2023-03-01T03:35:52;28.60;99.90
19972;DHT22;10147;16.402;102.848;2023-03-01T03:38:23;28.50;99.90
19972;DHT22;10147;16.402;102.848;2023-03-01T03:41:05;28.70;99.90
19972;DHT22;10147;16.402;102.848;2023-03-01T03:43:39;28.90;99.90
19972;DHT22;10147;16.402;102.848;2023-03-01T03:46:11;28.90;99.90
19972;DHT22;10147;16.402;102.848;2023-03-01T03:48:43;29.00;99.90
19972;DHT22;10147;16.402;102.848;2023-03-01T03:51:16;29.10;99.90
19972;DHT22;10147;16.402;102.848;2023-03-01T03:53:47;29.40;99.90
19972;DHT22;10147;16.402;102.848;2023-03-01T03:56:17;29.50;99.90
19972;DHT22;10147;16.402;102.848;2023-03-01T03:58:48;29.50;99.90
19972;DHT22;10147;16.402;102.848;2023-03-01T04:01:18;29.40;99.90
19972;DHT22;10147;16.402;102.848;2023-03-01T04:03:49;29.40;99.90
19972;DHT22;10147;16.402;102.848;2023-03-01T04:06:23;29.50;99.90
19972;DHT22;10147;16.402;102.848;2023-03-01T04:08:54;29.70;99.90
19972;DHT22;10147;16.402;102.848;2023-03-01T04:11:28;30.00;99.90
19972;DHT22;10147;16.402;102.848;2023-03-01T04:13:59;30.30;99.90
19972;DHT22;10147;16.402;102.848;2023-03-01T04:16:29;30.20;99.90
19972;DHT22;10147;16.402;102.848;2023-03-01T04:19:00;30.00;99.90
19972;DHT22;10147;16.402;102.848;2023-03-01T04:21:31;30.00;99.90
19972;DHT22;10147;16.402;102.848;2023-03-01T04:24:02;30.10;99.90
19972;DHT22;10147;16.402;102.848;2023-03-01T04:26:33;30.40;99.90
19972;DHT22;10147;16.402;102.848;2023-03-01T04:29:03;30.80;99.90
19972;DHT22;10147;16.402;102.848;2023-03-01T04:31:33;30.80;99.90
19972;DHT22;10147;16.402;102.848;2023-03-01T04:34:04;30.80;99.90
19972;DHT22;10147;16.402;102.848;2023-03-01T04:36:35;30.80;99.90
19972;DHT22;10147;16.402;102.848;2023-03-01T04:39:06;30.90;99.90
19972;DHT22;10147;16.402;102.848;2023-03-01T04:41:42;31.20;99.90
19972;DHT22;10147;16.402;102.848;2023-03-01T04:44:15;31.50;99.90
19972;DHT22;10147;16.402;102.848;2023-03-01T04:46:49;31.40;99.90
19972;DHT22;10147;16.402;102.848;2023-03-01T04:49:19;31.60;99.90
19972;DHT22;10147;16.402;102.848;2023-03-01T04:51:50;31.60;99.90
19972;DHT22;10147;16.402;102.848;2023-03-01T04:54:20;31.80;99.90
19972;DHT22;10147;16.402;102.848;2023-03-01T04:56:51;31.80;99.90
19972;DHT22;10147;16.402;102.848;2023-03-01T04:59:22;32.30;99.90
19972;DHT22;10147;16.402;102.848;2023-03-01T05:01:53;32.40;99.90
19972;DHT22;10147;16.402;102.848;2023-03-01T05:04:27;32.40;99.90
19972;DHT22;10147;16.402;102.848;2023-03-01T05:06:57;32.20;99.90
19972;DHT22;10147;16.402;102.848;2023-03-01T05:09:28;32.30;99.90
19972;DHT22;10147;16.402;102.848;2023-03-01T05:11:58;32.10;99.90
19972;DHT22;10147;16.402;102.848;2023-03-01T05:14:29;32.40;99.90
19972;DHT22;10147;16.402;102.848;2023-03-01T05:17:00;32.30;99.90
19972;DHT22;10147;16.402;102.848;2023-03-01T05:19:33;32.10;99.90
19972;DHT22;10147;16.402;102.848;2023-03-01T05:22:03;32.30;99.90
19972;DHT22;10147;16.402;102.848;2023-03-01T05:24:35;32.50;99.90
19972;DHT22;10147;16.402;102.848;2023-03-01T05:27:05;32.90;99.90
19972;DHT22;10147;16.402;102.848;2023-03-01T05:29:35;32.80;99.90
19972;DHT22;10147;16.402;102.848;2023-03-01T05:32:06;33.00;99.90
19972;DHT22;10147;16.402;102.848;2023-03-01T05:34:39;32.80;99.90
19972;DHT22;10147;16.402;102.848;2023-03-01T05:37:09;32.50;99.90
19972;DHT22;10147;16.402;102.848;2023-03-01T05:39:39;32.70;99.90
19972;DHT22;10147;16.402;102.848;2023-03-01T05:42:11;33.50;99.90
19972;DHT22;10147;16.402;102.848;2023-03-01T05:44:42;33.00;99.90
19972;DHT22;10147;16.402;102.848;2023-03-01T05:47:12;33.10;99.90
19972;DHT22;10147;16.402;102.848;2023-03-01T05:49:43;33.80;99.70
19972;DHT22;10147;16.402;102.848;2023-03-01T05:52:13;34.10;99.50
19972;DHT22;10147;16.402;102.848;2023-03-01T05:54:43;34.30;98.60
19972;DHT22;10147;16.402;102.848;2023-03-01T05:57:13;34.30;98.10
19972;DHT22;10147;16.402;102.848;2023-03-01T05:59:45;34.10;98.10
19972;DHT22;10147;16.402;102.848;2023-03-01T06:02:15;34.20;97.70
19972;DHT22;10147;16.402;102.848;2023-03-01T06:04:46;34.10;97.90
19972;DHT22;10147;16.402;102.848;2023-03-01T06:07:17;34.50;97.10
19972;DHT22;10147;16.402;102.848;2023-03-01T06:09:47;34.60;96.70
19972;DHT22;10147;16.402;102.848;2023-03-01T06:12:17;34.70;96.10
19972;DHT22;10147;16.402;102.848;2023-03-01T06:14:48;34.40;94.70
19972;DHT22;10147;16.402;102.848;2023-03-01T06:17:19;34.60;94.30
19972;DHT22;10147;16.402;102.848;2023-03-01T06:19:50;34.20;93.70
19972;DHT22;10147;16.402;102.848;2023-03-01T06:22:20;34.40;94.20
19972;DHT22;10147;16.402;102.848;2023-03-01T06:24:51;34.40;95.30
19972;DHT22;10147;16.402;102.848;2023-03-01T06:27:21;35.00;94.90
19972;DHT22;10147;16.402;102.848;2023-03-01T06:29:52;35.40;95.30
19972;DHT22;10147;16.402;102.848;2023-03-01T06:32:23;35.10;93.10
19972;DHT22;10147;16.402;102.848;2023-03-01T06:34:54;34.90;94.00
19972;DHT22;10147;16.402;102.848;2023-03-01T06:37:25;34.90;94.00
19972;DHT22;10147;16.402;102.848;2023-03-01T06:39:55;35.20;91.70
19972;DHT22;10147;16.402;102.848;2023-03-01T06:42:26;35.20;91.20
19972;DHT22;10147;16.402;102.848;2023-03-01T06:44:56;35.40;91.60
19972;DHT22;10147;16.402;102.848;2023-03-01T06:47:27;35.60;91.10
19972;DHT22;10147;16.402;102.848;2023-03-01T06:49:57;35.80;90.70
19972;DHT22;10147;16.402;102.848;2023-03-01T06:52:28;35.60;89.50
19972;DHT22;10147;16.402;102.848;2023-03-01T06:54:59;35.40;90.50
19972;DHT22;10147;16.402;102.848;2023-03-01T06:57:30;35.20;91.90
19972;DHT22;10147;16.402;102.848;2023-03-01T07:00:01;35.30;90.80
19972;DHT22;10147;16.402;102.848;2023-03-01T07:02:32;35.80;90.70
19972;DHT22;10147;16.402;102.848;2023-03-01T07:05:03;35.80;90.60
19972;DHT22;10147;16.402;102.848;2023-03-01T07:07:34;36.00;91.00
19972;DHT22;10147;16.402;102.848;2023-03-01T07:10:05;36.00;90.00
19972;DHT22;10147;16.402;102.848;2023-03-01T07:12:36;35.60;89.70
19972;DHT22;10147;16.402;102.848;2023-03-01T07:15:08;36.20;89.60
19972;DHT22;10147;16.402;102.848;2023-03-01T07:17:39;36.60;90.10
19972;DHT22;10147;16.402;102.848;2023-03-01T07:20:10;36.60;90.30
19972;DHT22;10147;16.402;102.848;2023-03-01T07:22:41;36.50;89.80
19972;DHT22;10147;16.402;102.848;2023-03-01T07:25:14;36.30;90.30
19972;DHT22;10147;16.402;102.848;2023-03-01T07:27:49;36.50;88.60
19972;DHT22;10147;16.402;102.848;2023-03-01T07:30:21;36.40;86.20
19972;DHT22;10147;16.402;102.848;2023-03-01T07:32:52;36.20;86.60
19972;DHT22;10147;16.402;102.848;2023-03-01T07:35:24;36.60;86.00
19972;DHT22;10147;16.402;102.848;2023-03-01T07:37:55;36.60;87.50
19972;DHT22;10147;16.402;102.848;2023-03-01T07:40:26;36.50;87.90
19972;DHT22;10147;16.402;102.848;2023-03-01T07:42:59;36.60;86.20
19972;DHT22;10147;16.402;102.848;2023-03-01T07:45:30;36.70;85.30
19972;DHT22;10147;16.402;102.848;2023-03-01T07:48:01;36.60;84.70
19972;DHT22;10147;16.402;102.848;2023-03-01T07:50:32;36.40;84.50
19972;DHT22;10147;16.402;102.848;2023-03-01T07:53:02;36.80;85.40
19972;DHT22;10147;16.402;102.848;2023-03-01T07:55:32;36.90;84.60
19972;DHT22;10147;16.402;102.848;2023-03-01T07:58:03;36.60;83.20
19972;DHT22;10147;16.402;102.848;2023-03-01T08:00:33;36.50;83.70
19972;DHT22;10147;16.402;102.848;2023-03-01T08:03:03;36.60;82.60
19972;DHT22;10147;16.402;102.848;2023-03-01T08:05:34;36.70;83.30
19972;DHT22;10147;16.402;102.848;2023-03-01T08:08:04;36.60;83.10
19972;DHT22;10147;16.402;102.848;2023-03-01T08:10:36;36.80;84.10
19972;DHT22;10147;16.402;102.848;2023-03-01T08:13:07;37.20;82.70
19972;DHT22;10147;16.402;102.848;2023-03-01T08:15:37;37.40;83.30
19972;DHT22;10147;16.402;102.848;2023-03-01T08:18:08;37.30;81.70
19972;DHT22;10147;16.402;102.848;2023-03-01T08:20:41;36.80;81.40
19972;DHT22;10147;16.402;102.848;2023-03-01T08:23:12;36.60;81.10
19972;DHT22;10147;16.402;102.848;2023-03-01T08:25:42;36.70;83.00
19972;DHT22;10147;16.402;102.848;2023-03-01T08:28:13;36.70;82.90
19972;DHT22;10147;16.402;102.848;2023-03-01T08:30:43;36.70;80.90
19972;DHT22;10147;16.402;102.848;2023-03-01T08:33:14;36.70;81.10
19972;DHT22;10147;16.402;102.848;2023-03-01T08:35:44;36.50;81.90
19972;DHT22;10147;16.402;102.848;2023-03-01T08:38:14;36.60;82.20
19972;DHT22;10147;16.402;102.848;2023-03-01T08:40:44;36.70;80.50
19972;DHT22;10147;16.402;102.848;2023-03-01T08:43:15;35.90;81.60
19972;DHT22;10147;16.402;102.848;2023-03-01T08:45:48;36.00;82.00
19972;DHT22;10147;16.402;102.848;2023-03-01T08:48:19;36.20;81.20
19972;DHT22;10147;16.402;102.848;2023-03-01T08:50:50;35.90;80.90
19972;DHT22;10147;16.402;102.848;2023-03-01T08:53:21;35.80;81.70
19972;DHT22;10147;16.402;102.848;2023-03-01T08:55:52;36.10;82.10
19972;DHT22;10147;16.402;102.848;2023-03-01T08:58:22;35.90;80.40
19972;DHT22;10147;16.402;102.848;2023-03-01T09:00:53;36.00;82.00
19972;DHT22;10147;16.402;102.848;2023-03-01T09:03:24;35.80;80.10
19972;DHT22;10147;16.402;102.848;2023-03-01T09:06:00;35.80;80.60
19972;DHT22;10147;16.402;102.848;2023-03-01T09:08:33;35.60;80.30
19972;DHT22;10147;16.402;102.848;2023-03-01T09:11:05;35.50;79.80
19972;DHT22;10147;16.402;102.848;2023-03-01T09:13:36;35.50;80.70
19972;DHT22;10147;16.402;102.848;2023-03-01T09:16:10;35.30;81.50
19972;DHT22;10147;16.402;102.848;2023-03-01T09:18:41;35.50;82.00
19972;DHT22;10147;16.402;102.848;2023-03-01T09:21:14;35.70;83.50
19972;DHT22;10147;16.402;102.848;2023-03-01T09:23:51;35.70;83.10
19972;DHT22;10147;16.402;102.848;2023-03-01T09:26:22;35.50;82.70
19972;DHT22;10147;16.402;102.848;2023-03-01T09:28:54;35.60;83.60
19972;DHT22;10147;16.402;102.848;2023-03-01T09:31:25;35.50;81.00
19972;DHT22;10147;16.402;102.848;2023-03-01T09:33:56;35.50;82.60
19972;DHT22;10147;16.402;102.848;2023-03-01T09:36:26;35.50;81.90
19972;DHT22;10147;16.402;102.848;2023-03-01T09:39:01;35.30;82.80
19972;DHT22;10147;16.402;102.848;2023-03-01T09:41:57;35.10;82.90
19972;DHT22;10147;16.402;102.848;2023-03-01T09:47:30;34.90;82.70
19972;DHT22;10147;16.402;102.848;2023-03-01T09:50:09;34.90;83.60
19972;DHT22;10147;16.402;102.848;2023-03-01T09:53:02;34.80;83.80
19972;DHT22;10147;16.402;102.848;2023-03-01T09:55:41;34.80;84.30
19972;DHT22;10147;16.402;102.848;2023-03-01T10:04:53;34.40;86.90
19972;DHT22;10147;16.402;102.848;2023-03-01T10:07:49;34.10;88.00
19972;DHT22;10147;16.402;102.848;2023-03-01T10:10:43;34.30;87.40
19972;DHT22;10147;16.402;102.848;2023-03-01T10:13:38;34.00;88.10
19972;DHT22;10147;16.402;102.848;2023-03-01T10:19:45;33.90;89.00
19972;DHT22;10147;16.402;102.848;2023-03-01T10:22:34;33.60;87.70
19972;DHT22;10147;16.402;102.848;2023-03-01T10:25:04;33.40;87.80
19972;DHT22;10147;16.402;102.848;2023-03-01T10:27:46;33.60;88.70
19972;DHT22;10147;16.402;102.848;2023-03-01T10:33:21;33.40;89.20
19972;DHT22;10147;16.402;102.848;2023-03-01T10:35:53;33.40;89.50
19972;DHT22;10147;16.402;102.848;2023-03-01T10:38:23;33.30;90.00
19972;DHT22;10147;16.402;102.848;2023-03-01T10:41:10;33.40;90.50
19972;DHT22;10147;16.402;102.848;2023-03-01T10:43:48;33.20;90.60
19972;DHT22;10147;16.402;102.848;2023-03-01T10:46:32;33.10;91.10
19972;DHT22;10147;16.402;102.848;2023-03-01T10:49:23;33.00;91.40
19972;DHT22;10147;16.402;102.848;2023-03-01T10:51:55;32.80;91.70
19972;DHT22;10147;16.402;102.848;2023-03-01T10:54:29;32.70;91.90
19972;DHT22;10147;16.402;102.848;2023-03-01T10:57:03;32.60;91.70
19972;DHT22;10147;16.402;102.848;2023-03-01T10:59:36;32.50;92.10
19972;DHT22;10147;16.402;102.848;2023-03-01T11:02:30;32.40;92.00
19972;DHT22;10147;16.402;102.848;2023-03-01T11:05:21;32.40;92.70
19972;DHT22;10147;16.402;102.848;2023-03-01T11:07:57;32.30;92.90
19972;DHT22;10147;16.402;102.848;2023-03-01T11:10:31;32.20;93.40
19972;DHT22;10147;16.402;102.848;2023-03-01T11:13:21;32.10;93.70
19972;DHT22;10147;16.402;102.848;2023-03-01T11:16:11;32.00;93.30
19972;DHT22;10147;16.402;102.848;2023-03-01T11:18:42;31.90;93.70
19972;DHT22;10147;16.402;102.848;2023-03-01T11:21:18;31.80;93.80
19972;DHT22;10147;16.402;102.848;2023-03-01T11:23:48;31.70;94.30
19972;DHT22;10147;16.402;102.848;2023-03-01T11:26:19;31.60;94.30
19972;DHT22;10147;16.402;102.848;2023-03-01T11:28:53;31.50;94.70
19972;DHT22;10147;16.402;102.848;2023-03-01T11:31:26;31.50;94.80
19972;DHT22;10147;16.402;102.848;2023-03-01T11:34:17;31.30;95.00
19972;DHT22;10147;16.402;102.848;2023-03-01T11:36:56;31.30;95.40
19972;DHT22;10147;16.402;102.848;2023-03-01T11:48:36;31.00;96.20
19972;DHT22;10147;16.402;102.848;2023-03-01T11:51:32;31.00;96.30
19972;DHT22;10147;16.402;102.848;2023-03-01T11:54:37;31.00;96.40
19972;DHT22;10147;16.402;102.848;2023-03-01T12:00:32;30.80;96.60
19972;DHT22;10147;16.402;102.848;2023-03-01T12:03:39;30.50;97.10
19972;DHT22;10147;16.402;102.848;2023-03-01T12:06:53;30.20;97.50
19972;DHT22;10147;16.402;102.848;2023-03-01T12:09:45;30.30;97.40
19972;DHT22;10147;16.402;102.848;2023-03-01T12:15:42;29.80;98.40
19972;DHT22;10147;16.402;102.848;2023-03-01T12:21:47;29.60;98.80
19972;DHT22;10147;16.402;102.848;2023-03-01T12:24:44;29.30;99.30
19972;DHT22;10147;16.402;102.848;2023-03-01T12:30:58;29.00;99.90
19972;DHT22;10147;16.402;102.848;2023-03-01T12:33:58;28.90;99.90
19972;DHT22;10147;16.402;102.848;2023-03-01T12:39:56;28.90;99.90
19972;DHT22;10147;16.402;102.848;2023-03-01T12:42:59;28.60;99.90
19972;DHT22;10147;16.402;102.848;2023-03-01T12:49:02;28.30;99.90
19972;DHT22;10147;16.402;102.848;2023-03-01T12:51:37;28.50;99.90
19972;DHT22;10147;16.402;102.848;2023-03-01T12:54:16;28.50;99.90
19972;DHT22;10147;16.402;102.848;2023-03-01T12:56:47;28.50;99.90
19972;DHT22;10147;16.402;102.848;2023-03-01T12:59:39;28.40;99.90
19972;DHT22;10147;16.402;102.848;2023-03-01T13:02:24;28.40;99.90
19972;DHT22;10147;16.402;102.848;2023-03-01T13:05:37;28.60;99.90
19972;DHT22;10147;16.402;102.848;2023-03-01T13:08:35;28.50;99.90
19972;DHT22;10147;16.402;102.848;2023-03-01T13:11:19;28.40;99.90
19972;DHT22;10147;16.402;102.848;2023-03-01T13:13:50;28.10;99.90
19972;DHT22;10147;16.402;102.848;2023-03-01T13:16:43;28.10;99.90
19972;DHT22;10147;16.402;102.848;2023-03-01T13:19:28;28.20;99.90
19972;DHT22;10147;16.402;102.848;2023-03-01T13:21:59;27.90;99.90
19972;DHT22;10147;16.402;102.848;2023-03-01T13:24:45;27.90;99.90
19972;DHT22;10147;16.402;102.848;2023-03-01T13:27:23;28.00;99.90
19972;DHT22;10147;16.402;102.848;2023-03-01T13:29:57;28.00;99.90
19972;DHT22;10147;16.402;102.848;2023-03-01T13:32:36;27.90;99.90
19972;DHT22;10147;16.402;102.848;2023-03-01T13:35:40;28.00;99.90
19972;DHT22;10147;16.402;102.848;2023-03-01T13:41:49;28.10;99.90
19972;DHT22;10147;16.402;102.848;2023-03-01T13:44:33;28.20;99.90
19972;DHT22;10147;16.402;102.848;2023-03-01T13:47:25;28.00;99.90
19972;DHT22;10147;16.402;102.848;2023-03-01T13:50:04;28.00;99.90
19972;DHT22;10147;16.402;102.848;2023-03-01T13:53:03;27.60;99.90
19972;DHT22;10147;16.402;102.848;2023-03-01T13:56:01;27.40;99.90
19972;DHT22;10147;16.402;102.848;2023-03-01T13:58:33;27.30;99.90
19972;DHT22;10147;16.402;102.848;2023-03-01T14:01:34;27.00;99.90
19972;DHT22;10147;16.402;102.848;2023-03-01T14:04:26;27.30;99.90
19972;DHT22;10147;16.402;102.848;2023-03-01T14:07:19;27.00;99.90
19972;DHT22;10147;16.402;102.848;2023-03-01T14:10:03;26.70;99.90
19972;DHT22;10147;16.402;102.848;2023-03-01T14:12:55;26.70;99.90
19972;DHT22;10147;16.402;102.848;2023-03-01T14:15:57;26.50;99.90
19972;DHT22;10147;16.402;102.848;2023-03-01T14:18:39;26.30;99.90
19972;DHT22;10147;16.402;102.848;2023-03-01T14:21:14;26.30;99.90
19972;DHT22;10147;16.402;102.848;2023-03-01T14:23:46;26.20;99.90
19972;DHT22;10147;16.402;102.848;2023-03-01T14:26:21;26.10;99.90
19972;DHT22;10147;16.402;102.848;2023-03-01T14:28:52;26.40;99.90
19972;DHT22;10147;16.402;102.848;2023-03-01T14:31:38;26.50;99.90
19972;DHT22;10147;16.402;102.848;2023-03-01T14:34:23;26.80;99.90
19972;DHT22;10147;16.402;102.848;2023-03-01T14:36:53;26.90;99.90
19972;DHT22;10147;16.402;102.848;2023-03-01T14:39:25;26.90;99.90
19972;DHT22;10147;16.402;102.848;2023-03-01T14:41:56;27.00;99.90
19972;DHT22;10147;16.402;102.848;2023-03-01T14:44:47;27.00;99.90
19972;DHT22;10147;16.402;102.848;2023-03-01T14:47:32;27.00;99.90
19972;DHT22;10147;16.402;102.848;2023-03-01T14:50:19;26.90;99.90
19972;DHT22;10147;16.402;102.848;2023-03-01T14:52:54;27.00;99.90
19972;DHT22;10147;16.402;102.848;2023-03-01T14:55:47;26.60;99.90
19972;DHT22;10147;16.402;102.848;2023-03-01T14:58:21;25.90;99.90
19972;DHT22;10147;16.402;102.848;2023-03-01T15:01:02;25.90;99.90
19972;DHT22;10147;16.402;102.848;2023-03-01T15:03:56;25.90;99.90
19972;DHT22;10147;16.402;102.848;2023-03-01T15:06:27;26.10;99.90
19972;DHT22;10147;16.402;102.848;2023-03-01T15:08:59;26.30;99.90
19972;DHT22;10147;16.402;102.848;2023-03-01T15:11:32;26.20;99.90
19972;DHT22;10147;16.402;102.848;2023-03-01T15:14:26;26.40;99.90
19972;DHT22;10147;16.402;102.848;2023-03-01T15:16:57;26.30;99.90
19972;DHT22;10147;16.402;102.848;2023-03-01T15:19:28;26.30;99.90
19972;DHT22;10147;16.402;102.848;2023-03-01T15:21:58;26.30;99.90
19972;DHT22;10147;16.402;102.848;2023-03-01T15:24:29;26.30;99.90
19972;DHT22;10147;16.402;102.848;2023-03-01T15:27:02;26.30;99.90
19972;DHT22;10147;16.402;102.848;2023-03-01T15:29:36;26.40;99.90
19972;DHT22;10147;16.402;102.848;2023-03-01T15:32:31;26.30;99.90
19972;DHT22;10147;16.402;102.848;2023-03-01T15:38:33;26.20;99.90
19972;DHT22;10147;16.402;102.848;2023-03-01T15:41:21;26.20;99.90
19972;DHT22;10147;16.402;102.848;2023-03-01T15:43:52;26.10;99.90
19972;DHT22;10147;16.402;102.848;2023-03-01T15:46:34;26.10;99.90
19972;DHT22;10147;16.402;102.848;2023-03-01T15:52:29;26.10;99.90
19972;DHT22;10147;16.402;102.848;2023-03-01T15:55:04;26.20;99.90
19972;DHT22;10147;16.402;102.848;2023-03-01T15:57:36;26.10;99.90
19972;DHT22;10147;16.402;102.848;2023-03-01T16:00:10;26.20;99.90
19972;DHT22;10147;16.402;102.848;2023-03-01T16:02:43;26.10;99.90
19972;DHT22;10147;16.402;102.848;2023-03-01T16:05:23;26.00;99.90
19972;DHT22;10147;16.402;102.848;2023-03-01T16:07:53;25.80;99.90
19972;DHT22;10147;16.402;102.848;2023-03-01T16:10:24;25.90;99.90
19972;DHT22;10147;16.402;102.848;2023-03-01T16:12:55;25.90;99.90
19972;DHT22;10147;16.402;102.848;2023-03-01T16:15:33;25.80;99.90
19972;DHT22;10147;16.402;102.848;2023-03-01T16:18:07;25.80;99.90
19972;DHT22;10147;16.402;102.848;2023-03-01T16:20:40;25.60;99.90
19972;DHT22;10147;16.402;102.848;2023-03-01T16:23:11;25.60;99.90
19972;DHT22;10147;16.402;102.848;2023-03-01T16:25:41;25.50;99.90
19972;DHT22;10147;16.402;102.848;2023-03-01T16:28:12;25.60;99.90
19972;DHT22;10147;16.402;102.848;2023-03-01T16:30:46;25.60;99.90
19972;DHT22;10147;16.402;102.848;2023-03-01T16:33:18;25.60;99.90
19972;DHT22;10147;16.402;102.848;2023-03-01T16:35:58;25.50;99.90
19972;DHT22;10147;16.402;102.848;2023-03-01T16:38:31;25.50;99.90
19972;DHT22;10147;16.402;102.848;2023-03-01T16:41:02;25.30;99.90
19972;DHT22;10147;16.402;102.848;2023-03-01T16:43:32;25.40;99.90
19972;DHT22;10147;16.402;102.848;2023-03-01T16:46:10;25.30;99.90
19972;DHT22;10147;16.402;102.848;2023-03-01T16:48:41;25.10;99.90
19972;DHT22;10147;16.402;102.848;2023-03-01T16:51:11;25.10;99.90
19972;DHT22;10147;16.402;102.848;2023-03-01T16:53:42;25.00;99.90
19972;DHT22;10147;16.402;102.848;2023-03-01T16:56:15;25.10;99.90
19972;DHT22;10147;16.402;102.848;2023-03-01T16:58:46;25.10;99.90
19972;DHT22;10147;16.402;102.848;2023-03-01T17:01:18;25.10;99.90